sensor_id;sensor_type;location;lat;lon;timestamp;pressure;altitude;pressure_sealevel;temperature;humidity
23677;BME280;31493;49.058;12.190;2024-01-27T00:01:35;97548.06;;;1.83;100.00
23677;BME280;31493;49.058;12.190;2024-01-27T00:04:02;97548.16;;;1.77;100.00
23677;BME280;31493;49.058;12.190;2024-01-27T00:06:29;97549.78;;;1.81;100.00
23677;BME280;31493;49.058;12.190;2024-01-27T00:08:56;97546.34;;;1.84;100.00
23677;BME280;31493;49.058;12.190;2024-01-27T00:11:25;97548.09;;;1.80;100.00
23677;BME280;31493;49.058;12.190;2024-01-27T00:13:52;97538.69;;;1.82;100.00
23677;BME280;31493;49.058;12.190;2024-01-27T00:16:19;97547.13;;;1.87;100.00
23677;BME280;31493;49.058;12.190;2024-01-27T00:18:46;97534.34;;;1.87;100.00
23677;BME280;31493;49.058;12.190;2024-01-27T00:21:13;97534.59;;;1.69;100.00
23677;BME280;31493;49.058;12.190;2024-01-27T00:23:40;97543.97;;;1.72;100.00
23677;BME280;31493;49.058;12.190;2024-01-27T00:26:07;97543.97;;;1.72;100.00
23677;BME280;31493;49.058;12.190;2024-01-27T00:28:36;97537.16;;;1.69;100.00
23677;BME280;31493;49.058;12.190;2024-01-27T00:31:03;97538.00;;;1.69;100.00
23677;BME280;31493;49.058;12.190;2024-01-27T00:33:30;97552.59;;;1.63;100.00
23677;BME280;31493;49.058;12.190;2024-01-27T00:35:57;97558.31;;;1.80;100.00
23677;BME280;31493;49.058;12.190;2024-01-27T00:38:24;97556.03;;;1.60;100.00
23677;BME280;31493;49.058;12.190;2024-01-27T00:40:51;97558.47;;;1.69;100.00
23677;BME280;31493;49.058;12.190;2024-01-27T00:43:19;97562.13;;;1.50;100.00
23677;BME280;31493;49.058;12.190;2024-01-27T00:45:47;97574.66;;;1.70;100.00
23677;BME280;31493;49.058;12.190;2024-01-27T00:48:14;97572.19;;;1.65;100.00
23677;BME280;31493;49.058;12.190;2024-01-27T00:50:41;97572.16;;;1.64;100.00
23677;BME280;31493;49.058;12.190;2024-01-27T00:53:08;97576.59;;;1.53;100.00
23677;BME280;31493;49.058;12.190;2024-01-27T00:55:35;97575.97;;;1.34;100.00
23677;BME280;31493;49.058;12.190;2024-01-27T00:58:02;97568.06;;;1.51;100.00
23677;BME280;31493;49.058;12.190;2024-01-27T01:00:29;97578.34;;;1.48;100.00
23677;BME280;31493;49.058;12.190;2024-01-27T01:02:58;97585.97;;;1.51;100.00
23677;BME280;31493;49.058;12.190;2024-01-27T01:05:25;97585.28;;;1.39;100.00
23677;BME280;31493;49.058;12.190;2024-01-27T01:07:52;97585.53;;;1.17;100.00
23677;BME280;31493;49.058;12.190;2024-01-27T01:10:19;97589.69;;;1.25;100.00
23677;BME280;31493;49.058;12.190;2024-01-27T01:12:46;97587.00;;;1.36;100.00
23677;BME280;31493;49.058;12.190;2024-01-27T01:15:13;97588.47;;;1.58;100.00
23677;BME280;31493;49.058;12.190;2024-01-27T01:17:40;97591.94;;;1.51;100.00
23677;BME280;31493;49.058;12.190;2024-01-27T01:20:09;97594.69;;;1.36;100.00
23677;BME280;31493;49.058;12.190;2024-01-27T01:22:37;97603.72;;;1.64;100.00
23677;BME280;31493;49.058;12.190;2024-01-27T01:25:04;97598.69;;;1.58;100.00
23677;BME280;31493;49.058;12.190;2024-01-27T01:27:32;97592.66;;;1.62;100.00
23677;BME280;31493;49.058;12.190;2024-01-27T01:29:59;97590.03;;;1.68;100.00
23677;BME280;31493;49.058;12.190;2024-01-27T01:32:26;97601.19;;;1.61;100.00
23677;BME280;31493;49.058;12.190;2024-01-27T01:34:53;97607.19;;;1.59;100.00
23677;BME280;31493;49.058;12.190;2024-01-27T01:37:21;97603.81;;;1.55;100.00
23677;BME280;31493;49.058;12.190;2024-01-27T01:39:48;97607.19;;;1.59;100.00
23677;BME280;31493;49.058;12.190;2024-01-27T01:42:15;97597.75;;;1.62;100.00
23677;BME280;31493;49.058;12.190;2024-01-27T01:44:42;97598.75;;;1.51;100.00
23677;BME280;31493;49.058;12.190;2024-01-27T01:47:09;97603.22;;;1.32;100.00
23677;BME280;31493;49.058;12.190;2024-01-27T01:49:36;97601.53;;;1.31;100.00
23677;BME280;31493;49.058;12.190;2024-01-27T01:52:04;97616.13;;;1.20;100.00
23677;BME280;31493;49.058;12.190;2024-01-27T01:54:33;97613.59;;;1.18;100.00
23677;BME280;31493;49.058;12.190;2024-01-27T01:57:02;97613.53;;;1.27;100.00
23677;BME280;31493;49.058;12.190;2024-01-27T01:59:30;97606.63;;;1.32;100.00
23677;BME280;31493;49.058;12.190;2024-01-27T02:01:57;97618.63;;;1.26;100.00
23677;BME280;31493;49.058;12.190;2024-01-27T02:04:24;97604.84;;;1.40;100.00
23677;BME280;31493;49.058;12.190;2024-01-27T02:06:51;97608.25;;;1.41;100.00
23677;BME280;31493;49.058;12.190;2024-01-27T02:09:18;97613.44;;;1.32;100.00
23677;BME280;31493;49.058;12.190;2024-01-27T02:11:46;97598.13;;;1.33;100.00
23677;BME280;31493;49.058;12.190;2024-01-27T02:14:13;97620.41;;;1.19;100.00
23677;BME280;31493;49.058;12.190;2024-01-27T02:16:40;97616.06;;;1.26;100.00
23677;BME280;31493;49.058;12.190;2024-01-27T02:19:07;97627.78;;;1.48;100.00
23677;BME280;31493;49.058;12.190;2024-01-27T02:21:34;97631.19;;;1.47;100.00
23677;BME280;31493;49.058;12.190;2024-01-27T02:24:01;97639.69;;;1.49;100.00
23677;BME280;31493;49.058;12.190;2024-01-27T02:26:30;97630.31;;;1.48;100.00
23677;BME280;31493;49.058;12.190;2024-01-27T02:28:57;97632.00;;;1.49;100.00
23677;BME280;31493;49.058;12.190;2024-01-27T02:31:24;97631.19;;;1.47;100.00
23677;BME280;31493;49.058;12.190;2024-01-27T02:33:51;97627.94;;;1.34;100.00
23677;BME280;31493;49.058;12.190;2024-01-27T02:36:18;97635.59;;;1.33;100.00
23677;BME280;31493;49.058;12.190;2024-01-27T02:38:45;97638.38;;;1.08;100.00
23677;BME280;31493;49.058;12.190;2024-01-27T02:41:12;97640.00;;;1.19;100.00
23677;BME280;31493;49.058;12.190;2024-01-27T02:43:41;97638.28;;;1.22;100.00
23677;BME280;31493;49.058;12.190;2024-01-27T02:46:11;97634.75;;;1.34;100.00
23677;BME280;31493;49.058;12.190;2024-01-27T02:48:39;97645.06;;;1.23;100.00
23677;BME280;31493;49.058;12.190;2024-01-27T02:51:06;97637.59;;;1.03;100.00
23677;BME280;31493;49.058;12.190;2024-01-27T02:53:34;97645.09;;;1.19;100.00
23677;BME280;31493;49.058;12.190;2024-01-27T02:56:01;97644.31;;;1.13;100.00
23677;BME280;31493;49.058;12.190;2024-01-27T02:58:28;97644.25;;;1.18;100.00
23677;BME280;31493;49.058;12.190;2024-01-27T03:00:57;97641.66;;;1.24;100.00
23677;BME280;31493;49.058;12.190;2024-01-27T03:03:24;97645.94;;;1.22;100.00
23677;BME280;31493;49.058;12.190;2024-01-27T03:05:51;97642.59;;;1.15;100.00
23677;BME280;31493;49.058;12.190;2024-01-27T03:08:17;97643.50;;;1.10;100.00
23677;BME280;31493;49.058;12.190;2024-01-27T03:10:45;97638.41;;;1.07;100.00
23677;BME280;31493;49.058;12.190;2024-01-27T03:13:12;97635.16;;;0.88;100.00
23677;BME280;31493;49.058;12.190;2024-01-27T03:15:39;97647.81;;;1.03;100.00
23677;BME280;31493;49.058;12.190;2024-01-27T03:18:09;97644.47;;;0.95;100.00
23677;BME280;31493;49.058;12.190;2024-01-27T03:20:37;97647.00;;;0.98;100.00
23677;BME280;31493;49.058;12.190;2024-01-27T03:23:03;97663.94;;;1.07;100.00
23677;BME280;31493;49.058;12.190;2024-01-27T03:25:30;97658.84;;;1.10;100.00
23677;BME280;31493;49.058;12.190;2024-01-27T03:27:58;97669.13;;;0.99;100.00
23677;BME280;31493;49.058;12.190;2024-01-27T03:30:26;97672.47;;;1.06;100.00
23677;BME280;31493;49.058;12.190;2024-01-27T03:32:53;97681.88;;;1.01;100.00
23677;BME280;31493;49.058;12.190;2024-01-27T03:35:22;97683.69;;;0.88;100.00
23677;BME280;31493;49.058;12.190;2024-01-27T03:37:49;97698.16;;;0.91;100.00
23677;BME280;31493;49.058;12.190;2024-01-27T03:40:17;97698.25;;;0.77;100.00
23677;BME280;31493;49.058;12.190;2024-01-27T03:42:44;97692.28;;;0.76;100.00
23677;BME280;31493;49.058;12.190;2024-01-27T03:45:11;97704.25;;;0.73;100.00
23677;BME280;31493;49.058;12.190;2024-01-27T03:47:38;97698.28;;;0.74;100.00
23677;BME280;31493;49.058;12.190;2024-01-27T03:50:06;97700.81;;;0.78;100.00
23677;BME280;31493;49.058;12.190;2024-01-27T03:52:35;97702.56;;;0.70;100.00
23677;BME280;31493;49.058;12.190;2024-01-27T03:55:02;97707.75;;;0.58;100.00
23677;BME280;31493;49.058;12.190;2024-01-27T03:57:31;97706.03;;;0.61;100.00
23677;BME280;31493;49.058;12.190;2024-01-27T03:59:58;97713.59;;;0.75;100.00
23677;BME280;31493;49.058;12.190;2024-01-27T04:02:25;97718.03;;;0.49;100.00
23677;BME280;31493;49.058;12.190;2024-01-27T04:04:52;97729.88;;;0.60;100.00
23677;BME280;31493;49.058;12.190;2024-01-27T04:07:19;97729.03;;;0.60;100.00
23677;BME280;31493;49.058;12.190;2024-01-27T04:09:47;97720.34;;;0.82;100.00
23677;BME280;31493;49.058;12.190;2024-01-27T04:12:14;97727.28;;;0.67;100.00
23677;BME280;31493;49.058;12.190;2024-01-27T04:14:41;97737.50;;;0.67;100.00
23677;BME280;31493;49.058;12.190;2024-01-27T04:17:08;97732.38;;;0.67;100.00
23677;BME280;31493;49.058;12.190;2024-01-27T04:19:35;97745.19;;;0.60;100.00
23677;BME280;31493;49.058;12.190;2024-01-27T04:22:02;97748.66;;;0.49;100.00
23677;BME280;31493;49.058;12.190;2024-01-27T04:24:29;97748.63;;;0.50;100.00
23677;BME280;31493;49.058;12.190;2024-01-27T04:26:59;97746.09;;;0.50;100.00
23677;BME280;31493;49.058;12.190;2024-01-27T04:29:28;97745.28;;;0.39;100.00
23677;BME280;31493;49.058;12.190;2024-01-27T04:31:55;97746.19;;;0.32;100.00
23677;BME280;31493;49.058;12.190;2024-01-27T04:34:22;97732.53;;;0.34;100.00
23677;BME280;31493;49.058;12.190;2024-01-27T04:36:49;97737.69;;;0.30;100.00
23677;BME280;31493;49.058;12.190;2024-01-27T04:39:16;97748.66;;;0.44;100.00
23677;BME280;31493;49.058;12.190;2024-01-27T04:41:43;97749.53;;;0.43;100.00
23677;BME280;31493;49.058;12.190;2024-01-27T04:44:11;97757.94;;;0.62;100.00
23677;BME280;31493;49.058;12.190;2024-01-27T04:46:38;97755.44;;;0.50;100.00
23677;BME280;31493;49.058;12.190;2024-01-27T04:49:05;97748.56;;;0.63;100.00
23677;BME280;31493;49.058;12.190;2024-01-27T04:51:32;97749.44;;;0.58;100.00
23677;BME280;31493;49.058;12.190;2024-01-27T04:53:59;97761.38;;;0.55;100.00
23677;BME280;31493;49.058;12.190;2024-01-27T04:56:27;97769.09;;;0.44;100.00
23677;BME280;31493;49.058;12.190;2024-01-27T04:58:54;97773.31;;;0.48;100.00
23677;BME280;31493;49.058;12.190;2024-01-27T05:01:22;97775.03;;;0.40;100.00
23677;BME280;31493;49.058;12.190;2024-01-27T05:03:49;97775.09;;;0.32;100.00
23677;BME280;31493;49.058;12.190;2024-01-27T05:06:16;97783.47;;;0.59;100.00
23677;BME280;31493;49.058;12.190;2024-01-27T05:08:44;97777.53;;;0.52;100.00
23677;BME280;31493;49.058;12.190;2024-01-27T05:11:11;97762.28;;;0.48;100.00
23677;BME280;31493;49.058;12.190;2024-01-27T05:13:39;97765.63;;;0.56;100.00
23677;BME280;31493;49.058;12.190;2024-01-27T05:16:07;97775.88;;;0.50;100.00
23677;BME280;31493;49.058;12.190;2024-01-27T05:18:35;97760.53;;;0.53;100.00
23677;BME280;31493;49.058;12.190;2024-01-27T05:21:02;97772.38;;;0.65;100.00
23677;BME280;31493;49.058;12.190;2024-01-27T05:23:29;97762.97;;;0.71;100.00
23677;BME280;31493;49.058;12.190;2024-01-27T05:25:56;97774.94;;;0.63;100.00
23677;BME280;31493;49.058;12.190;2024-01-27T05:28:23;97777.53;;;0.55;100.00
23677;BME280;31493;49.058;12.190;2024-01-27T05:30:50;97769.00;;;0.58;100.00
23677;BME280;31493;49.058;12.190;2024-01-27T05:33:17;97770.72;;;0.60;100.00
23677;BME280;31493;49.058;12.190;2024-01-27T05:35:46;97772.38;;;0.65;100.00
23677;BME280;31493;49.058;12.190;2024-01-27T05:38:13;97779.16;;;0.66;100.00
23677;BME280;31493;49.058;12.190;2024-01-27T05:40:40;97786.88;;;0.61;100.00
23677;BME280;31493;49.058;12.190;2024-01-27T05:43:07;97791.94;;;0.64;100.00
23677;BME280;31493;49.058;12.190;2024-01-27T05:45:34;97798.03;;;0.42;100.00
23677;BME280;31493;49.058;12.190;2024-01-27T05:48:01;97802.22;;;0.53;100.00
23677;BME280;31493;49.058;12.190;2024-01-27T05:50:28;97787.78;;;0.48;100.00
23677;BME280;31493;49.058;12.190;2024-01-27T05:52:58;97798.78;;;0.57;100.00
23677;BME280;31493;49.058;12.190;2024-01-27T05:55:25;97798.78;;;0.60;100.00
23677;BME280;31493;49.058;12.190;2024-01-27T05:57:52;97799.72;;;0.35;100.00
23677;BME280;31493;49.058;12.190;2024-01-27T06:00:21;97802.28;;;0.40;100.00
23677;BME280;31493;49.058;12.190;2024-01-27T06:02:48;97800.56;;;0.48;100.00
23677;BME280;31493;49.058;12.190;2024-01-27T06:05:15;97804.03;;;0.31;100.00
23677;BME280;31493;49.058;12.190;2024-01-27T06:07:42;97808.25;;;0.32;100.00
23677;BME280;31493;49.058;12.190;2024-01-27T06:10:10;97809.09;;;0.38;100.00
23677;BME280;31493;49.058;12.190;2024-01-27T06:12:37;97807.38;;;0.38;100.00
23677;BME280;31493;49.058;12.190;2024-01-27T06:15:05;97805.72;;;0.32;100.00
23677;BME280;31493;49.058;12.190;2024-01-27T06:17:34;97817.56;;;0.44;100.00
23677;BME280;31493;49.058;12.190;2024-01-27T06:20:01;97810.78;;;0.43;100.00
23677;BME280;31493;49.058;12.190;2024-01-27T06:22:29;97804.81;;;0.44;100.00
23677;BME280;31493;49.058;12.190;2024-01-27T06:24:57;97801.44;;;0.33;100.00
23677;BME280;31493;49.058;12.190;2024-01-27T06:27:24;97815.06;;;0.33;100.00
23677;BME280;31493;49.058;12.190;2024-01-27T06:29:51;97812.53;;;0.32;100.00
23677;BME280;31493;49.058;12.190;2024-01-27T06:32:18;97809.13;;;0.31;100.00
23677;BME280;31493;49.058;12.190;2024-01-27T06:34:45;97823.56;;;0.28;100.00
23677;BME280;31493;49.058;12.190;2024-01-27T06:37:12;97816.00;;;0.13;100.00
23677;BME280;31493;49.058;12.190;2024-01-27T06:39:39;97815.13;;;0.15;100.00
23677;BME280;31493;49.058;12.190;2024-01-27T06:42:06;97821.06;;;0.19;100.00
23677;BME280;31493;49.058;12.190;2024-01-27T06:44:34;97815.97;;;0.19;100.00
23677;BME280;31493;49.058;12.190;2024-01-27T06:47:02;97821.84;;;0.34;100.00
23677;BME280;31493;49.058;12.190;2024-01-27T06:49:29;97820.22;;;0.14;100.00
23677;BME280;31493;49.058;12.190;2024-01-27T06:51:56;97821.06;;;0.14;100.00
23677;BME280;31493;49.058;12.190;2024-01-27T06:54:23;97829.59;;;0.12;100.00
23677;BME280;31493;49.058;12.190;2024-01-27T06:56:50;97827.03;;;0.10;100.00
23677;BME280;31493;49.058;12.190;2024-01-27T06:59:17;97827.91;;;0.07;100.00
23677;BME280;31493;49.058;12.190;2024-01-27T07:01:46;97839.78;;;0.15;100.00
23677;BME280;31493;49.058;12.190;2024-01-27T07:04:14;97834.69;;;0.15;100.00
23677;BME280;31493;49.058;12.190;2024-01-27T07:06:41;97833.00;;;0.12;100.00
23677;BME280;31493;49.058;12.190;2024-01-27T07:09:08;97832.97;;;0.18;100.00
23677;BME280;31493;49.058;12.190;2024-01-27T07:11:35;97834.66;;;0.25;100.00
23677;BME280;31493;49.058;12.190;2024-01-27T07:14:03;97846.59;;;0.08;100.00
23677;BME280;31493;49.058;12.190;2024-01-27T07:16:30;97844.91;;;0.02;100.00
23677;BME280;31493;49.058;12.190;2024-01-27T07:18:59;97848.34;;;-0.02;100.00
23677;BME280;31493;49.058;12.190;2024-01-27T07:21:26;97859.41;;;-0.07;100.00
23677;BME280;31493;49.058;12.190;2024-01-27T07:23:54;97863.63;;;-0.03;100.00
23677;BME280;31493;49.058;12.190;2024-01-27T07:26:21;97863.66;;;-0.12;100.00
23677;BME280;31493;49.058;12.190;2024-01-27T07:28:48;97857.72;;;-0.19;100.00
23677;BME280;31493;49.058;12.190;2024-01-27T07:31:15;97853.47;;;-0.20;100.00
23677;BME280;31493;49.058;12.190;2024-01-27T07:33:43;97858.53;;;-0.15;100.00
23677;BME280;31493;49.058;12.190;2024-01-27T07:36:11;97850.91;;;-0.17;100.00
23677;BME280;31493;49.058;12.190;2024-01-27T07:38:38;97852.59;;;-0.11;100.00
23677;BME280;31493;49.058;12.190;2024-01-27T07:41:05;97863.63;;;-0.09;100.00
23677;BME280;31493;49.058;12.190;2024-01-27T07:43:32;97864.50;;;-0.06;100.00
23677;BME280;31493;49.058;12.190;2024-01-27T07:45:59;97870.41;;;0.02;100.00
23677;BME280;31493;49.058;12.190;2024-01-27T07:48:26;97872.97;;;0.02;100.00
23677;BME280;31493;49.058;12.190;2024-01-27T07:50:53;97873.81;;;0.11;100.00
23677;BME280;31493;49.058;12.190;2024-01-27T07:53:23;97873.81;;;0.07;100.00
23677;BME280;31493;49.058;12.190;2024-01-27T07:55:50;97872.97;;;0.13;100.00
23677;BME280;31493;49.058;12.190;2024-01-27T07:58:19;97892.50;;;0.08;100.00
23677;BME280;31493;49.058;12.190;2024-01-27T08:00:46;97897.59;;;0.10;100.00
23677;BME280;31493;49.058;12.190;2024-01-27T08:03:14;97895.91;;;0.02;100.00
23677;BME280;31493;49.058;12.190;2024-01-27T08:05:41;97893.38;;;0.12;100.00
23677;BME280;31493;49.058;12.190;2024-01-27T08:08:08;97895.91;;;0.24;100.00
23677;BME280;31493;49.058;12.190;2024-01-27T08:10:37;97880.56;;;0.28;100.00
23677;BME280;31493;49.058;12.190;2024-01-27T08:13:05;97899.28;;;0.37;100.00
23677;BME280;31493;49.058;12.190;2024-01-27T08:15:32;97881.41;;;0.33;100.00
23677;BME280;31493;49.058;12.190;2024-01-27T08:17:59;97890.81;;;0.24;100.00
23677;BME280;31493;49.058;12.190;2024-01-27T08:20:34;97891.59;;;0.46;100.00
23677;BME280;31493;49.058;12.190;2024-01-27T08:23:01;97889.06;;;0.43;100.00
23677;BME280;31493;49.058;12.190;2024-01-27T08:25:29;97897.56;;;0.43;100.00
23677;BME280;31493;49.058;12.190;2024-01-27T08:27:57;97897.53;;;0.55;100.00
23677;BME280;31493;49.058;12.190;2024-01-27T08:30:24;97909.38;;;0.75;100.00
23677;BME280;31493;49.058;12.190;2024-01-27T08:32:51;97911.94;;;0.64;100.00
23677;BME280;31493;49.058;12.190;2024-01-27T08:35:18;97909.41;;;0.58;100.00
23677;BME280;31493;49.058;12.190;2024-01-27T08:37:45;97905.16;;;0.60;100.00
23677;BME280;31493;49.058;12.190;2024-01-27T08:40:12;97917.00;;;0.82;100.00
23677;BME280;31493;49.058;12.190;2024-01-27T08:42:40;97912.69;;;0.89;100.00
23677;BME280;31493;49.058;12.190;2024-01-27T08:45:08;97924.56;;;1.02;100.00
23677;BME280;31493;49.058;12.190;2024-01-27T08:47:35;97919.53;;;0.87;100.00
23677;BME280;31493;49.058;12.190;2024-01-27T08:50:04;97922.94;;;0.83;100.00
23677;BME280;31493;49.058;12.190;2024-01-27T08:52:31;97924.66;;;0.85;100.00
23677;BME280;31493;49.058;12.190;2024-01-27T08:54:58;97929.75;;;0.85;100.00
23677;BME280;31493;49.058;12.190;2024-01-27T08:57:25;97921.22;;;0.91;100.00
23677;BME280;31493;49.058;12.190;2024-01-27T08:59:52;97925.47;;;0.92;100.00
23677;BME280;31493;49.058;12.190;2024-01-27T09:02:20;97927.13;;;1.01;100.00
23677;BME280;31493;49.058;12.190;2024-01-27T09:04:47;97927.84;;;1.29;100.00
23677;BME280;31493;49.058;12.190;2024-01-27T09:07:14;97928.72;;;1.23;100.00
23677;BME280;31493;49.058;12.190;2024-01-27T09:09:41;97932.16;;;1.18;100.00
23677;BME280;31493;49.058;12.190;2024-01-27T09:12:08;97921.91;;;1.24;100.00
23677;BME280;31493;49.058;12.190;2024-01-27T09:14:35;97925.28;;;1.33;100.00
23677;BME280;31493;49.058;12.190;2024-01-27T09:17:03;97930.31;;;1.46;100.00
23677;BME280;31493;49.058;12.190;2024-01-27T09:19:33;97943.09;;;1.42;100.00
23677;BME280;31493;49.058;12.190;2024-01-27T09:22:00;97941.38;;;1.46;100.00
23677;BME280;31493;49.058;12.190;2024-01-27T09:24:27;97934.41;;;1.68;100.00
23677;BME280;31493;49.058;12.190;2024-01-27T09:26:54;97932.69;;;1.70;100.00
23677;BME280;31493;49.058;12.190;2024-01-27T09:29:21;97944.56;;;1.79;100.00
23677;BME280;31493;49.058;12.190;2024-01-27T09:31:48;97924.09;;;1.83;100.00
23677;BME280;31493;49.058;12.190;2024-01-27T09:34:15;97931.69;;;1.91;100.00
23677;BME280;31493;49.058;12.190;2024-01-27T09:36:44;97934.13;;;2.05;100.00
23677;BME280;31493;49.058;12.190;2024-01-27T09:39:11;97948.69;;;1.96;100.00
23677;BME280;31493;49.058;12.190;2024-01-27T09:41:38;97940.09;;;2.08;100.00
23677;BME280;31493;49.058;12.190;2024-01-27T09:44:05;97946.97;;;2.02;100.00
23677;BME280;31493;49.058;12.190;2024-01-27T09:46:32;97938.50;;;1.95;100.00
23677;BME280;31493;49.058;12.190;2024-01-27T09:49:01;97935.00;;;2.04;100.00
23677;BME280;31493;49.058;12.190;2024-01-27T09:51:29;97930.81;;;1.95;100.00
23677;BME280;31493;49.058;12.190;2024-01-27T09:53:58;97946.00;;;2.12;100.00
23677;BME280;31493;49.058;12.190;2024-01-27T09:56:25;97946.72;;;2.29;100.00
23677;BME280;31493;49.058;12.190;2024-01-27T09:58:53;97955.19;;;2.36;100.00
23677;BME280;31493;49.058;12.190;2024-01-27T10:01:21;97959.25;;;2.58;100.00
23677;BME280;31493;49.058;12.190;2024-01-27T10:03:51;97956.13;;;2.24;100.00
23677;BME280;31493;49.058;12.190;2024-01-27T10:06:18;97963.16;;;1.99;100.00
23677;BME280;31493;49.058;12.190;2024-01-27T10:08:52;97965.72;;;2.01;100.00
23677;BME280;31493;49.058;12.190;2024-01-27T10:11:21;97959.38;;;2.44;100.00
23677;BME280;31493;49.058;12.190;2024-01-27T10:13:53;97961.38;;;2.13;100.00
23677;BME280;31493;49.058;12.190;2024-01-27T10:16:21;97959.56;;;2.23;100.00
23677;BME280;31493;49.058;12.190;2024-01-27T10:18:59;97960.41;;;2.27;100.00
23677;BME280;31493;49.058;12.190;2024-01-27T10:21:26;97950.09;;;2.33;100.00
23677;BME280;31493;49.058;12.190;2024-01-27T10:23:53;97950.94;;;2.35;100.00
23677;BME280;31493;49.058;12.190;2024-01-27T10:26:22;97949.00;;;2.55;100.00
23677;BME280;31493;49.058;12.190;2024-01-27T10:28:53;97948.22;;;2.50;100.00
23677;BME280;31493;49.058;12.190;2024-01-27T10:31:20;97948.22;;;2.52;100.00
23677;BME280;31493;49.058;12.190;2024-01-27T10:33:53;97966.19;;;2.45;100.00
23677;BME280;31493;49.058;12.190;2024-01-27T10:36:22;97968.66;;;2.55;100.00
23677;BME280;31493;49.058;12.190;2024-01-27T10:38:49;97960.09;;;2.56;100.00
23677;BME280;31493;49.058;12.190;2024-01-27T10:41:22;97945.47;;;2.68;100.00
23677;BME280;31493;49.058;12.190;2024-01-27T10:43:50;97949.78;;;2.65;100.00
23677;BME280;31493;49.058;12.190;2024-01-27T10:46:19;97942.81;;;2.76;100.00
23677;BME280;31493;49.058;12.190;2024-01-27T10:48:50;97958.50;;;2.45;100.00
23677;BME280;31493;49.058;12.190;2024-01-27T10:51:22;97954.91;;;2.62;100.00
23677;BME280;31493;49.058;12.190;2024-01-27T10:53:52;97948.88;;;2.69;100.00
23677;BME280;31493;49.058;12.190;2024-01-27T10:56:24;97927.69;;;2.56;100.00
23677;BME280;31493;49.058;12.190;2024-01-27T10:58:52;97937.00;;;2.60;100.00
23677;BME280;31493;49.058;12.190;2024-01-27T11:02:38;97950.44;;;2.82;100.00
23677;BME280;31493;49.058;12.190;2024-01-27T11:05:06;97957.41;;;2.71;100.00
23677;BME280;31493;49.058;12.190;2024-01-27T11:07:35;97948.78;;;2.78;100.00
23677;BME280;31493;49.058;12.190;2024-01-27T11:10:02;97948.75;;;2.80;100.00
23677;BME280;31493;49.058;12.190;2024-01-27T11:12:29;97933.44;;;2.76;100.00
23677;BME280;31493;49.058;12.190;2024-01-27T11:14:57;97933.31;;;2.86;100.00
23677;BME280;31493;49.058;12.190;2024-01-27T11:17:25;97936.94;;;2.66;100.00
23677;BME280;31493;49.058;12.190;2024-01-27T11:19:56;97940.13;;;2.88;100.00
23677;BME280;31493;49.058;12.190;2024-01-27T11:22:26;97939.06;;;3.06;100.00
23677;BME280;31493;49.058;12.190;2024-01-27T11:24:53;97931.59;;;2.86;100.00
23677;BME280;31493;49.058;12.190;2024-01-27T11:27:31;97934.03;;;2.97;100.00
23677;BME280;31493;49.058;12.190;2024-01-27T11:29:58;97930.75;;;2.87;100.00
23677;BME280;31493;49.058;12.190;2024-01-27T11:32:26;97941.50;;;3.15;100.00
23677;BME280;31493;49.058;12.190;2024-01-27T11:34:54;97936.34;;;3.17;100.00
23677;BME280;31493;49.058;12.190;2024-01-27T11:37:21;97949.09;;;3.24;100.00
23677;BME280;31493;49.058;12.190;2024-01-27T11:39:50;97946.69;;;3.12;100.00
23677;BME280;31493;49.058;12.190;2024-01-27T11:42:18;97942.69;;;3.53;100.00
23677;BME280;31493;49.058;12.190;2024-01-27T11:44:46;97932.63;;;3.98;100.00
23677;BME280;31493;49.058;12.190;2024-01-27T11:47:17;97930.88;;;3.41;99.54
23677;BME280;31493;49.058;12.190;2024-01-27T11:49:50;97931.28;;;3.14;100.00
23677;BME280;31493;49.058;12.190;2024-01-27T11:52:19;97934.38;;;3.36;100.00
23677;BME280;31493;49.058;12.190;2024-01-27T11:54:46;97923.09;;;3.47;100.00
23677;BME280;31493;49.058;12.190;2024-01-27T11:57:13;97926.91;;;3.80;100.00
23677;BME280;31493;49.058;12.190;2024-01-27T11:59:40;97913.94;;;3.88;100.00
23677;BME280;31493;49.058;12.190;2024-01-27T12:02:07;97926.94;;;3.79;99.16
23677;BME280;31493;49.058;12.190;2024-01-27T12:04:34;97927.56;;;3.35;100.00
23677;BME280;31493;49.058;12.190;2024-01-27T12:07:01;97917.97;;;3.49;100.00
23677;BME280;31493;49.058;12.190;2024-01-27T12:09:30;97926.50;;;3.48;100.00
23677;BME280;31493;49.058;12.190;2024-01-27T12:11:57;97920.78;;;3.32;100.00
23677;BME280;31493;49.058;12.190;2024-01-27T12:14:24;97917.75;;;3.64;100.00
23677;BME280;31493;49.058;12.190;2024-01-27T12:16:51;97901.13;;;3.88;100.00
23677;BME280;31493;49.058;12.190;2024-01-27T12:19:19;97910.28;;;4.97;100.00
23677;BME280;31493;49.058;12.190;2024-01-27T12:21:49;97904.16;;;4.59;92.86
23677;BME280;31493;49.058;12.190;2024-01-27T12:24:16;97898.59;;;4.81;92.02
23677;BME280;31493;49.058;12.190;2024-01-27T12:26:45;97910.47;;;3.91;93.29
23677;BME280;31493;49.058;12.190;2024-01-27T12:29:13;97907.50;;;3.63;97.42
23677;BME280;31493;49.058;12.190;2024-01-27T12:31:40;97889.75;;;4.03;100.00
23677;BME280;31493;49.058;12.190;2024-01-27T12:34:07;97889.84;;;4.91;93.65
23677;BME280;31493;49.058;12.190;2024-01-27T12:36:40;97896.16;;;4.28;92.60
23677;BME280;31493;49.058;12.190;2024-01-27T12:39:08;97893.38;;;4.41;97.07
23677;BME280;31493;49.058;12.190;2024-01-27T12:41:36;97892.38;;;4.48;94.35
23677;BME280;31493;49.058;12.190;2024-01-27T12:44:05;97898.00;;;4.20;96.18
23677;BME280;31493;49.058;12.190;2024-01-27T12:46:33;97890.69;;;3.99;95.34
23677;BME280;31493;49.058;12.190;2024-01-27T12:49:00;97904.03;;;4.65;95.29
23677;BME280;31493;49.058;12.190;2024-01-27T12:51:27;97879.94;;;5.14;90.17
23677;BME280;31493;49.058;12.190;2024-01-27T12:53:54;97893.72;;;4.67;91.13